首页
METAR-TAF:

METAR-TAF

机场 :

Greater Kankakee Airport

Kankakee, 伊利诺伊州, 美国

纬度: 41-04-17N, 经度: 087-50-47W, 海拔: 192米

当前天气观测

该预报发布于23分钟前的18:15 UTC
风速8节,风向东转东南
温度 15°C
湿度 88%
气压 1006 hPa
能見度: 4.8公里
多云层高于2900英尺
多云层高于4700英尺
阴天层高于7000英尺
雷暴

METAR: KIKK 281815Z AUTO 11008KT 3SM TS BKN029 BKN047 OVC070 15/13 A2970 RMK AO2 LTG DSNT ALQS P0004 T01450134

时间: 13:38 (18:38 UTC)


TAF: 丢失

超过4000个机场的气象观测和天气预报(METAR&TAF报告)。

可查询的气象台以黄色和红色小点在地图上表示。

将鼠标移到小点上方,可查看气象台名称。

然后点击查看天气观测和预报。

如需切换地图:点击带黑十字的绿色按钮放大地图;点击带横线的绿色按钮缩小地图;或者点击绿色箭头查看邻近地区的地图。


METAR-TAF: